Time;durP1;ratioP1;P1;durP2;ratioP2;P2;SDS_P1;SDS_P2;PMS_P1;PMS_P2;Temp;Humidity;BMP_temperature;BMP_pressure;BME280_temperature;BME280_humidity;BME280_pressure;Samples;Min_cycle;Max_cycle;Signal;HPM_P1;HPM_P2
2021/06/28 00:02:10;;;;;;;5.00;4.60;;;;;;;;;;5074349;28;20182;-86
2021/06/28 00:04:36;;;;;;;5.17;4.77;;;;;;;;;;5072172;28;20177;-86
2021/06/28 00:07:02;;;;;;;5.33;4.83;;;;;;;;;;5070706;28;20241;-86
2021/06/28 00:09:28;;;;;;;5.47;5.07;;;;;;;;;;5074071;28;20219;-86
2021/06/28 00:11:54;;;;;;;5.00;4.60;;;;;;;;;;5072805;28;20172;-86
2021/06/28 00:14:20;;;;;;;4.97;4.57;;;;;;;;;;5072701;28;20540;-86
2021/06/28 00:16:47;;;;;;;4.73;4.33;;;;;;;;;;5072274;28;20194;-86
2021/06/28 00:19:13;;;;;;;4.97;4.53;;;;;;;;;;5071957;28;20660;-86
2021/06/28 00:21:39;;;;;;;4.67;4.33;;;;;;;;;;5074033;28;20270;-86
2021/06/28 00:24:06;;;;;;;5.33;4.93;;;;;;;;;;5072385;28;20193;-86
2021/06/28 00:26:32;;;;;;;5.83;5.37;;;;;;;;;;5072519;28;20185;-86
2021/06/28 00:28:58;;;;;;;5.40;5.00;;;;;;;;;;5073677;28;20513;-86
2021/06/28 00:31:24;;;;;;;5.43;5.03;;;;;;;;;;5052489;28;20626;-86
2021/06/28 00:33:50;;;;;;;5.07;4.67;;;;;;;;;;5067957;28;20179;-86
2021/06/28 00:36:16;;;;;;;5.80;5.20;;;;;;;;;;5071854;28;20285;-86
2021/06/28 00:38:42;;;;;;;5.07;4.67;;;;;;;;;;5073575;28;20188;-86
2021/06/28 00:41:08;;;;;;;4.87;4.57;;;;;;;;;;5069964;28;20165;-86
2021/06/28 00:43:34;;;;;;;4.93;4.53;;;;;;;;;;5051991;28;20200;-86
2021/06/28 00:46:00;;;;;;;5.10;4.70;;;;;;;;;;5054612;28;20189;-86
2021/06/28 00:48:26;;;;;;;5.20;4.80;;;;;;;;;;5071754;28;20270;-86
2021/06/28 00:50:54;;;;;;;5.20;4.80;;;;;;;;;;5071243;28;20187;-86
2021/06/28 00:53:21;;;;;;;5.17;4.77;;;;;;;;;;5072042;28;20202;-86
2021/06/28 00:55:48;;;;;;;4.97;4.60;;;;;;;;;;5068357;28;20223;-86
2021/06/28 00:58:14;;;;;;;5.77;5.27;;;;;;;;;;5053611;28;20546;-87
2021/06/28 01:00:40;;;;;;;5.50;5.10;;;;;;;;;;5068162;28;20311;-87
2021/06/28 01:03:07;;;;;;;5.73;5.33;;;;;;;;;;5071869;28;20179;-86
2021/06/28 01:05:34;;;;;;;5.50;4.77;;;;;;;;;;5069627;28;20600;-86
2021/06/28 01:08:01;;;;;;;5.70;5.20;;;;;;;;;;5071400;28;20228;-86
2021/06/28 01:10:27;;;;;;;5.90;5.40;;;;;;;;;;5070946;28;20185;-86
2021/06/28 01:12:53;;;;;;;5.33;4.93;;;;;;;;;;5071139;28;20431;-84
2021/06/28 01:15:20;;;;;;;5.33;4.87;;;;;;;;;;5070476;28;20232;-86
2021/06/28 01:17:46;;;;;;;6.23;5.47;;;;;;;;;;5071055;28;20581;-86
2021/06/28 01:20:14;;;;;;;5.87;5.47;;;;;;;;;;5073008;28;20203;-84
2021/06/28 01:22:41;;;;;;;5.80;5.30;;;;;;;;;;5071567;28;20177;-84
2021/06/28 01:25:08;;;;;;;5.70;5.27;;;;;;;;;;5070846;28;20196;-84
2021/06/28 01:27:34;;;;;;;5.87;5.37;;;;;;;;;;5071638;28;20270;-85
2021/06/28 01:30:01;;;;;;;5.50;5.10;;;;;;;;;;5071278;28;20192;-84
2021/06/28 01:32:27;;;;;;;5.90;5.40;;;;;;;;;;5071625;28;20651;-84
2021/06/28 01:34:53;;;;;;;7.73;5.30;;;;;;;;;;5069878;28;20224;-85
2021/06/28 01:37:19;;;;;;;5.47;5.03;;;;;;;;;;5071629;28;20183;-85
2021/06/28 01:39:46;;;;;;;5.70;5.30;;;;;;;;;;5070790;28;20292;-85
2021/06/28 01:42:12;;;;;;;6.23;5.63;;;;;;;;;;5071071;28;20180;-85
2021/06/28 01:44:38;;;;;;;5.30;4.80;;;;;;;;;;5063180;28;20310;-85
2021/06/28 01:47:04;;;;;;;6.30;5.40;;;;;;;;;;5071223;28;20180;-85
2021/06/28 01:49:31;;;;;;;6.00;5.50;;;;;;;;;;5072176;28;20184;-85
2021/06/28 01:51:57;;;;;;;6.07;5.47;;;;;;;;;;5070933;28;20173;-85
2021/06/28 01:54:23;;;;;;;4.77;4.43;;;;;;;;;;5069724;28;20187;-86
2021/06/28 01:56:49;;;;;;;5.77;5.27;;;;;;;;;;5070828;28;20211;-85
2021/06/28 01:59:15;;;;;;;5.63;5.23;;;;;;;;;;5070566;28;20188;-84
2021/06/28 02:01:41;;;;;;;5.37;4.50;;;;;;;;;;5070542;28;20185;-85
2021/06/28 02:04:07;;;;;;;5.40;5.00;;;;;;;;;;5070514;28;20191;-85
2021/06/28 02:06:33;;;;;;;4.80;4.47;;;;;;;;;;5070842;28;20204;-85
2021/06/28 02:08:59;;;;;;;5.70;5.23;;;;;;;;;;5070584;28;20187;-85
2021/06/28 02:11:25;;;;;;;5.00;4.60;;;;;;;;;;5064292;28;20176;-85
2021/06/28 02:13:51;;;;;;;5.27;4.77;;;;;;;;;;5070327;28;20176;-85
2021/06/28 02:16:17;;;;;;;5.20;4.80;;;;;;;;;;5070888;28;20216;-84
2021/06/28 02:18:43;;;;;;;5.47;5.07;;;;;;;;;;5070006;28;20398;-85
2021/06/28 02:21:09;;;;;;;5.57;5.17;;;;;;;;;;5072333;28;20528;-85
2021/06/28 02:23:36;;;;;;;6.13;5.53;;;;;;;;;;5070202;28;20237;-84
2021/06/28 02:26:07;;;;;;;5.37;4.97;;;;;;;;;;5072019;28;20184;-85
2021/06/28 02:28:34;;;;;;;5.33;4.93;;;;;;;;;;5070518;28;20181;-85
2021/06/28 02:31:00;;;;;;;5.67;5.27;;;;;;;;;;5070344;28;20702;-85
2021/06/28 02:33:27;;;;;;;5.27;4.73;;;;;;;;;;5071787;28;20242;-85
2021/06/28 02:35:53;;;;;;;5.83;5.03;;;;;;;;;;5071099;28;20552;-86
2021/06/28 02:38:19;;;;;;;5.70;5.10;;;;;;;;;;5069816;28;20485;-85
2021/06/28 02:40:45;;;;;;;5.67;5.17;;;;;;;;;;5069183;28;20189;-85
2021/06/28 02:43:12;;;;;;;5.40;5.00;;;;;;;;;;5070505;28;20180;-84
2021/06/28 02:45:38;;;;;;;5.50;5.10;;;;;;;;;;5071623;28;20709;-85
2021/06/28 02:48:05;;;;;;;5.40;5.00;;;;;;;;;;5070026;28;20218;-87
2021/06/28 02:50:31;;;;;;;5.90;4.90;;;;;;;;;;5069786;28;20191;-85
2021/06/28 02:53:00;;;;;;;4.60;4.30;;;;;;;;;;5070573;28;20220;-86
2021/06/28 02:55:26;;;;;;;5.10;4.70;;;;;;;;;;5069846;28;20304;-85
2021/06/28 02:57:52;;;;;;;5.33;4.93;;;;;;;;;;5072670;28;20205;-85
2021/06/28 03:00:18;;;;;;;5.20;4.80;;;;;;;;;;5068300;28;20504;-84
2021/06/28 03:02:45;;;;;;;5.60;5.10;;;;;;;;;;5074779;28;20295;-84
2021/06/28 03:05:11;;;;;;;5.27;4.87;;;;;;;;;;5073117;28;20193;-84
2021/06/28 03:07:38;;;;;;;5.63;5.13;;;;;;;;;;5065098;28;20215;-84
2021/06/28 03:10:05;;;;;;;5.93;5.43;;;;;;;;;;5073979;28;20185;-84
2021/06/28 03:12:31;;;;;;;5.50;5.10;;;;;;;;;;5066127;28;20187;-85
2021/06/28 03:14:57;;;;;;;5.57;5.07;;;;;;;;;;5073254;28;20295;-84
2021/06/28 03:17:23;;;;;;;5.57;5.17;;;;;;;;;;5074137;28;20414;-84
2021/06/28 03:19:49;;;;;;;5.73;5.17;;;;;;;;;;5075136;28;20624;-84
2021/06/28 03:22:16;;;;;;;5.30;4.90;;;;;;;;;;5073892;28;20181;-85
2021/06/28 03:24:43;;;;;;;5.10;4.70;;;;;;;;;;5073457;28;20190;-85
2021/06/28 03:27:09;;;;;;;7.67;5.00;;;;;;;;;;5075078;28;20508;-84
2021/06/28 03:29:35;;;;;;;5.43;4.93;;;;;;;;;;5070479;28;20182;-84
2021/06/28 03:32:01;;;;;;;5.27;4.77;;;;;;;;;;5053439;28;20269;-85
2021/06/28 03:34:27;;;;;;;6.10;5.60;;;;;;;;;;5061143;28;20212;-84
2021/06/28 03:36:53;;;;;;;5.57;5.07;;;;;;;;;;5074408;28;20280;-85
2021/06/28 03:39:19;;;;;;;5.80;5.30;;;;;;;;;;5073042;28;20307;-84
2021/06/28 03:41:45;;;;;;;5.63;5.13;;;;;;;;;;5074704;28;20172;-84
2021/06/28 03:44:11;;;;;;;5.77;5.37;;;;;;;;;;5072294;28;20185;-84
2021/06/28 03:46:37;;;;;;;6.73;5.10;;;;;;;;;;5073284;28;20176;-84
2021/06/28 03:49:04;;;;;;;5.27;4.77;;;;;;;;;;5072895;28;20246;-85
2021/06/28 03:51:30;;;;;;;5.07;4.67;;;;;;;;;;5073039;28;20252;-84
2021/06/28 03:53:56;;;;;;;6.23;5.73;;;;;;;;;;5072632;28;20249;-84
2021/06/28 03:56:22;;;;;;;5.70;5.07;;;;;;;;;;5072923;28;20215;-85
2021/06/28 03:58:48;;;;;;;5.60;5.20;;;;;;;;;;5072671;28;20193;-85
2021/06/28 04:01:14;;;;;;;7.67;4.90;;;;;;;;;;5073151;28;20261;-84
2021/06/28 04:03:40;;;;;;;5.10;4.70;;;;;;;;;;5072372;28;20182;-85
2021/06/28 04:06:08;;;;;;;5.80;5.30;;;;;;;;;;5072415;28;20197;-84
2021/06/28 04:08:35;;;;;;;5.20;4.80;;;;;;;;;;5072747;28;20213;-84
2021/06/28 04:11:01;;;;;;;5.37;4.97;;;;;;;;;;5072962;28;20500;-84
2021/06/28 04:13:27;;;;;;;5.07;4.70;;;;;;;;;;5072196;28;20196;-84
2021/06/28 04:15:54;;;;;;;5.20;4.80;;;;;;;;;;5062704;28;20689;-84
2021/06/28 04:18:20;;;;;;;5.23;4.83;;;;;;;;;;5072002;28;20187;-84
2021/06/28 04:20:46;;;;;;;5.80;5.30;;;;;;;;;;5060306;28;20240;-85
2021/06/28 04:23:12;;;;;;;5.33;4.80;;;;;;;;;;5066471;28;20223;-85
2021/06/28 04:25:39;;;;;;;5.30;4.90;;;;;;;;;;5071922;28;20565;-84
2021/06/28 04:28:05;;;;;;;5.60;5.20;;;;;;;;;;5072675;28;20183;-84
2021/06/28 04:30:31;;;;;;;5.43;5.00;;;;;;;;;;5067774;28;20189;-84
2021/06/28 04:32:57;;;;;;;5.53;5.10;;;;;;;;;;5066555;28;20262;-85
2021/06/28 04:35:25;;;;;;;5.87;5.30;;;;;;;;;;5071793;28;20224;-86
2021/06/28 04:37:52;;;;;;;6.03;5.50;;;;;;;;;;5071629;28;20216;-89
2021/06/28 04:40:20;;;;;;;5.97;5.47;;;;;;;;;;5055017;28;20185;-89
2021/06/28 04:42:46;;;;;;;5.73;5.17;;;;;;;;;;5071796;28;20196;-89
2021/06/28 04:45:13;;;;;;;5.40;5.00;;;;;;;;;;5071357;28;20172;-89
2021/06/28 04:47:39;;;;;;;6.30;5.80;;;;;;;;;;5071562;28;20259;-89
2021/06/28 04:50:07;;;;;;;5.87;5.37;;;;;;;;;;5070828;28;20188;-89
2021/06/28 04:52:33;;;;;;;5.23;4.83;;;;;;;;;;5067730;28;20223;-90
2021/06/28 04:55:00;;;;;;;5.10;4.70;;;;;;;;;;5058752;28;20228;-88
2021/06/28 04:57:26;;;;;;;6.20;5.70;;;;;;;;;;5063643;28;20173;-88
2021/06/28 04:59:52;;;;;;;5.27;4.87;;;;;;;;;;5070057;28;20183;-88
2021/06/28 05:02:18;;;;;;;5.73;5.33;;;;;;;;;;5070868;28;20176;-87
2021/06/28 05:04:47;;;;;;;5.97;5.40;;;;;;;;;;5070425;28;20180;-87
2021/06/28 05:07:13;;;;;;;5.67;5.27;;;;;;;;;;5070480;28;20188;-87
2021/06/28 05:09:39;;;;;;;5.70;5.20;;;;;;;;;;5071599;28;20188;-88
2021/06/28 05:12:05;;;;;;;5.93;5.43;;;;;;;;;;5070235;28;20180;-88
2021/06/28 05:14:31;;;;;;;5.90;5.40;;;;;;;;;;5069645;28;20195;-88
2021/06/28 05:16:57;;;;;;;5.50;5.10;;;;;;;;;;5070317;28;20239;-87
2021/06/28 05:19:23;;;;;;;5.33;4.90;;;;;;;;;;5068856;28;20822;-88
2021/06/28 05:21:49;;;;;;;5.17;4.77;;;;;;;;;;5070490;28;20177;-87
2021/06/28 05:24:16;;;;;;;5.40;5.00;;;;;;;;;;5070617;28;20169;-88
2021/06/28 05:26:42;;;;;;;6.67;5.57;;;;;;;;;;5070812;28;20205;-87
2021/06/28 05:29:08;;;;;;;6.10;5.40;;;;;;;;;;5071316;28;20173;-86
2021/06/28 05:31:34;;;;;;;5.53;5.03;;;;;;;;;;5071218;28;20207;-87
2021/06/28 05:34:00;;;;;;;5.43;5.03;;;;;;;;;;5070035;28;20544;-87
2021/06/28 05:36:26;;;;;;;7.97;7.27;;;;;;;;;;5067091;28;20226;-88
2021/06/28 05:38:52;;;;;;;9.00;7.63;;;;;;;;;;5070777;28;20184;-89
2021/06/28 05:41:18;;;;;;;9.33;8.43;;;;;;;;;;5071383;28;20205;-87
2021/06/28 05:43:45;;;;;;;9.10;8.30;;;;;;;;;;5071830;28;20652;-87
2021/06/28 05:46:11;;;;;;;10.17;9.17;;;;;;;;;;5072129;28;20192;-87
2021/06/28 05:48:37;;;;;;;11.03;9.57;;;;;;;;;;5070251;28;20546;-87
2021/06/28 05:51:04;;;;;;;12.07;9.43;;;;;;;;;;5067766;28;20182;-87
2021/06/28 05:53:32;;;;;;;11.27;10.17;;;;;;;;;;5067512;28;20192;-87
2021/06/28 05:55:58;;;;;;;10.23;9.20;;;;;;;;;;5064345;28;20263;-88
2021/06/28 05:58:28;;;;;;;11.53;10.43;;;;;;;;;;5071342;28;20566;-88
2021/06/28 06:00:55;;;;;;;13.67;10.80;;;;;;;;;;5071474;28;20169;-88
2021/06/28 06:03:21;;;;;;;11.60;10.43;;;;;;;;;;5071650;28;20173;-87
2021/06/28 06:05:48;;;;;;;11.63;10.40;;;;;;;;;;5071097;28;20249;-87
2021/06/28 06:08:14;;;;;;;12.17;10.97;;;;;;;;;;5069595;28;20253;-87
2021/06/28 06:10:40;;;;;;;11.37;10.20;;;;;;;;;;5071801;28;20199;-87
2021/06/28 06:13:06;;;;;;;10.43;9.50;;;;;;;;;;5071238;28;20179;-88
2021/06/28 06:15:32;;;;;;;9.97;9.07;;;;;;;;;;5070532;28;20237;-88
2021/06/28 06:17:58;;;;;;;9.73;8.73;;;;;;;;;;5071059;28;20177;-87
2021/06/28 06:20:24;;;;;;;10.50;9.50;;;;;;;;;;5071121;28;20200;-86
2021/06/28 06:22:52;;;;;;;10.60;9.57;;;;;;;;;;5070826;28;20627;-86
2021/06/28 06:25:18;;;;;;;10.13;9.20;;;;;;;;;;5057683;28;20690;-86
2021/06/28 06:27:44;;;;;;;12.07;10.50;;;;;;;;;;5050132;28;20258;-86
2021/06/28 06:30:11;;;;;;;11.63;10.50;;;;;;;;;;5063107;28;20267;-87
2021/06/28 06:32:38;;;;;;;10.87;9.87;;;;;;;;;;5071563;28;20187;-86
2021/06/28 06:35:04;;;;;;;11.37;10.37;;;;;;;;;;5069439;28;20277;-86
2021/06/28 06:37:33;;;;;;;12.43;11.17;;;;;;;;;;5070362;28;20188;-86
2021/06/28 06:40:03;;;;;;;11.50;10.30;;;;;;;;;;5071213;28;20287;-88
2021/06/28 06:42:29;;;;;;;12.00;10.90;;;;;;;;;;5069343;28;20177;-88
2021/06/28 06:44:55;;;;;;;11.33;10.23;;;;;;;;;;5069467;28;20176;-88
2021/06/28 06:47:24;;;;;;;10.80;9.67;;;;;;;;;;5069075;28;20207;-88
2021/06/28 06:49:50;;;;;;;11.60;10.50;;;;;;;;;;5069324;28;20180;-87
2021/06/28 06:52:17;;;;;;;12.00;10.73;;;;;;;;;;5070210;28;20583;-88
2021/06/28 06:54:43;;;;;;;12.43;11.20;;;;;;;;;;5070145;28;20711;-87
2021/06/28 06:57:10;;;;;;;12.07;11.07;;;;;;;;;;5069690;28;20294;-88
2021/06/28 06:59:42;;;;;;;12.13;11.07;;;;;;;;;;5068390;28;20199;-88
2021/06/28 07:02:08;;;;;;;11.53;10.37;;;;;;;;;;5069483;28;20211;-88
2021/06/28 07:04:34;;;;;;;12.27;11.17;;;;;;;;;;5069682;28;20532;-88
2021/06/28 07:07:03;;;;;;;12.47;11.23;;;;;;;;;;5070761;28;20683;-88
2021/06/28 07:09:30;;;;;;;11.03;10.13;;;;;;;;;;5069993;28;20180;-88
2021/06/28 07:11:56;;;;;;;13.07;10.90;;;;;;;;;;5052732;28;20296;-88
2021/06/28 07:14:24;;;;;;;12.53;11.33;;;;;;;;;;5056662;28;20208;-88
2021/06/28 07:16:53;;;;;;;11.47;10.47;;;;;;;;;;5065494;28;20201;-91
2021/06/28 07:19:19;;;;;;;11.90;10.80;;;;;;;;;;5057877;28;20202;-87
2021/06/28 07:21:48;;;;;;;11.80;10.80;;;;;;;;;;5070475;28;20850;-87
2021/06/28 07:24:14;;;;;;;12.47;11.10;;;;;;;;;;5070142;28;20188;-87
2021/06/28 07:26:40;;;;;;;12.63;11.27;;;;;;;;;;5072573;28;20177;-84
2021/06/28 07:29:07;;;;;;;12.43;11.43;;;;;;;;;;5068309;28;20639;-84
2021/06/28 07:31:33;;;;;;;12.13;11.13;;;;;;;;;;5069962;28;20215;-84
2021/06/28 07:33:59;;;;;;;12.03;11.03;;;;;;;;;;5069080;28;20177;-84
2021/06/28 07:36:26;;;;;;;11.60;10.63;;;;;;;;;;5069169;28;20224;-84
2021/06/28 07:38:52;;;;;;;12.00;11.00;;;;;;;;;;5068723;28;20204;-85
2021/06/28 07:41:18;;;;;;;12.10;11.03;;;;;;;;;;5067379;28;20187;-84
2021/06/28 07:43:44;;;;;;;11.83;10.63;;;;;;;;;;5070337;28;20192;-84
2021/06/28 07:46:10;;;;;;;11.70;10.57;;;;;;;;;;5072585;28;20553;-84
2021/06/28 07:48:36;;;;;;;12.43;11.30;;;;;;;;;;5072368;28;20291;-85
2021/06/28 07:51:05;;;;;;;11.40;10.43;;;;;;;;;;5072638;28;20324;-84
2021/06/28 07:53:31;;;;;;;10.73;9.53;;;;;;;;;;5072616;28;20175;-85
2021/06/28 07:56:13;;;;;;;10.50;9.67;;;;;;;;;;5072662;28;20211;-84
2021/06/28 07:58:39;;;;;;;10.60;9.77;;;;;;;;;;5072747;28;20201;-85
2021/06/28 08:01:05;;;;;;;11.63;10.60;;;;;;;;;;5072702;28;20536;-84
2021/06/28 08:03:31;;;;;;;11.50;10.30;;;;;;;;;;5072043;28;20183;-84
2021/06/28 08:05:57;;;;;;;10.37;9.47;;;;;;;;;;5072559;28;20183;-84
2021/06/28 08:08:24;;;;;;;10.50;9.60;;;;;;;;;;5072662;28;20180;-84
2021/06/28 08:10:50;;;;;;;10.77;9.87;;;;;;;;;;5072639;28;20279;-84
2021/06/28 08:13:16;;;;;;;11.63;9.50;;;;;;;;;;5072771;28;20219;-85
2021/06/28 08:15:42;;;;;;;12.53;11.33;;;;;;;;;;5072860;28;20579;-85
2021/06/28 08:18:08;;;;;;;11.13;10.00;;;;;;;;;;5072564;28;20184;-85
2021/06/28 08:20:37;;;;;;;10.40;9.60;;;;;;;;;;5072269;28;20196;-85
2021/06/28 08:23:03;;;;;;;10.17;9.30;;;;;;;;;;5069518;28;20241;-86
2021/06/28 08:25:29;;;;;;;10.80;9.90;;;;;;;;;;5067022;28;20193;-85
2021/06/28 08:27:55;;;;;;;11.00;10.03;;;;;;;;;;5072987;28;20177;-86
2021/06/28 08:30:21;;;;;;;10.90;10.00;;;;;;;;;;5073270;28;20184;-85
2021/06/28 08:32:48;;;;;;;12.07;10.50;;;;;;;;;;5072990;28;20184;-85
2021/06/28 08:35:14;;;;;;;10.83;9.97;;;;;;;;;;5071106;28;20231;-86
2021/06/28 08:37:40;;;;;;;10.70;9.80;;;;;;;;;;5062702;28;20196;-85
2021/06/28 08:40:08;;;;;;;11.03;10.03;;;;;;;;;;5070292;28;20263;-86
2021/06/28 08:42:34;;;;;;;10.60;9.70;;;;;;;;;;5072017;28;20175;-85
2021/06/28 08:45:00;;;;;;;11.07;10.17;;;;;;;;;;5072657;28;20178;-85
2021/06/28 08:47:27;;;;;;;11.03;9.27;;;;;;;;;;5072900;28;20176;-86
2021/06/28 08:49:53;;;;;;;10.03;9.23;;;;;;;;;;5072104;28;20600;-87
2021/06/28 08:52:20;;;;;;;10.80;9.73;;;;;;;;;;5074564;28;20850;-85
2021/06/28 08:54:47;;;;;;;10.70;9.70;;;;;;;;;;5071017;28;20299;-86
2021/06/28 08:57:13;;;;;;;9.87;9.07;;;;;;;;;;5059564;28;20556;-86
2021/06/28 08:59:41;;;;;;;9.43;8.63;;;;;;;;;;5063724;28;20177;-85
2021/06/28 09:02:07;;;;;;;10.47;9.47;;;;;;;;;;5071646;28;20169;-85
2021/06/28 09:04:34;;;;;;;11.27;10.07;;;;;;;;;;5071670;28;20180;-85
2021/06/28 09:07:21;;;;;;;10.57;9.67;;;;;;;;;;5068143;28;20207;-85
2021/06/28 09:09:47;;;;;;;10.77;9.77;;;;;;;;;;5060302;28;20220;-86
2021/06/28 09:12:14;;;;;;;10.97;9.97;;;;;;;;;;5061080;28;20181;-86
2021/06/28 09:14:53;;;;;;;10.67;9.77;;;;;;;;;;5070859;28;20188;-86
2021/06/28 09:17:26;;;;;;;10.27;9.27;;;;;;;;;;5066903;28;20239;-86
2021/06/28 09:20:10;;;;;;;9.27;8.57;;;;;;;;;;5070791;28;20168;-86
2021/06/28 09:22:36;;;;;;;12.00;9.33;;;;;;;;;;5071112;28;20597;-84
2021/06/28 09:25:02;;;;;;;9.23;8.33;;;;;;;;;;5071555;28;20208;-84
2021/06/28 09:27:30;;;;;;;9.57;8.67;;;;;;;;;;5067120;28;20180;-86
2021/06/28 09:29:58;;;;;;;9.80;9.00;;;;;;;;;;5057333;28;20177;-89
2021/06/28 09:32:25;;;;;;;9.43;8.73;;;;;;;;;;5063933;28;20272;-88
2021/06/28 09:34:53;;;;;;;9.27;8.53;;;;;;;;;;5061099;28;20282;-88
2021/06/28 09:37:24;;;;;;;10.40;9.17;;;;;;;;;;5064030;28;20181;-88
2021/06/28 09:39:51;;;;;;;9.13;8.43;;;;;;;;;;5059282;28;20578;-85
2021/06/28 09:42:21;;;;;;;9.30;8.57;;;;;;;;;;5061089;28;20278;-87
2021/06/28 09:44:50;;;;;;;9.10;8.20;;;;;;;;;;5057486;28;20953;-87
2021/06/28 09:47:17;;;;;;;8.80;8.00;;;;;;;;;;5069052;28;20180;-87
2021/06/28 09:50:03;;;;;;;8.90;8.20;;;;;;;;;;5069772;28;20651;-87
2021/06/28 09:52:34;;;;;;;9.57;8.87;;;;;;;;;;5044404;28;20544;-87
2021/06/28 09:55:19;;;;;;;9.83;8.83;;;;;;;;;;5059034;28;20530;-87
2021/06/28 09:58:04;;;;;;;9.27;8.47;;;;;;;;;;5070002;28;20486;-87
2021/06/28 10:00:30;;;;;;;9.70;8.80;;;;;;;;;;5070172;28;20212;-87
2021/06/28 10:02:56;;;;;;;9.60;8.80;;;;;;;;;;5071190;28;20173;-87
2021/06/28 10:05:25;;;;;;;9.13;8.43;;;;;;;;;;5069628;28;20196;-87
2021/06/28 10:07:54;;;;;;;8.30;7.70;;;;;;;;;;5071583;28;20222;-88
2021/06/28 10:10:26;;;;;;;9.37;8.47;;;;;;;;;;5071846;28;20184;-87
2021/06/28 10:12:52;;;;;;;9.43;8.53;;;;;;;;;;5071735;28;20191;-86
2021/06/28 10:15:20;;;;;;;8.83;8.07;;;;;;;;;;5070351;28;20185;-87
2021/06/28 10:17:47;;;;;;;9.60;8.80;;;;;;;;;;5071199;28;20599;-83
2021/06/28 10:20:14;;;;;;;9.13;8.40;;;;;;;;;;5066813;28;20276;-85
2021/06/28 10:22:41;;;;;;;9.07;8.37;;;;;;;;;;5061431;28;20270;-85
2021/06/28 10:25:08;;;;;;;8.33;7.73;;;;;;;;;;5072531;28;20173;-85
2021/06/28 10:27:37;;;;;;;8.83;8.13;;;;;;;;;;5071524;28;20172;-86
2021/06/28 10:30:08;;;;;;;8.93;8.23;;;;;;;;;;5069229;28;20177;-85
2021/06/28 10:32:35;;;;;;;7.90;7.20;;;;;;;;;;5064865;28;20185;-86
2021/06/28 10:35:01;;;;;;;8.73;8.03;;;;;;;;;;5069354;28;20748;-86
2021/06/28 10:37:32;;;;;;;7.80;7.20;;;;;;;;;;5070343;28;20189;-86
2021/06/28 10:39:59;;;;;;;8.50;7.70;;;;;;;;;;5071156;28;20521;-86
2021/06/28 10:42:30;;;;;;;8.97;8.27;;;;;;;;;;5072287;28;20475;-86
2021/06/28 10:44:56;;;;;;;9.00;8.10;;;;;;;;;;5070905;28;20457;-86
2021/06/28 10:47:22;;;;;;;9.77;8.97;;;;;;;;;;5072082;28;20188;-87
2021/06/28 10:49:52;;;;;;;8.77;7.97;;;;;;;;;;5072986;28;20228;-86
2021/06/28 10:52:37;;;;;;;10.07;9.17;;;;;;;;;;5072083;28;20212;-87
2021/06/28 10:55:21;;;;;;;9.27;8.30;;;;;;;;;;5069641;28;20181;-86
2021/06/28 10:57:54;;;;;;;10.70;9.43;;;;;;;;;;5070445;28;20179;-85
2021/06/28 11:00:39;;;;;;;9.50;8.70;;;;;;;;;;5069454;28;20236;-84
2021/06/28 11:03:30;;;;;;;10.33;9.37;;;;;;;;;;5065124;28;20174;-84
2021/06/28 11:06:15;;;;;;;11.10;10.07;;;;;;;;;;5068387;28;20260;-85
2021/06/28 11:08:56;;;;;;;10.73;9.83;;;;;;;;;;5070736;28;20213;-84
2021/06/28 11:11:40;;;;;;;10.33;9.33;;;;;;;;;;5066009;28;20311;-83
2021/06/28 11:14:06;;;;;;;10.07;9.27;;;;;;;;;;5068900;28;20210;-84
2021/06/28 11:16:33;;;;;;;10.80;10.00;;;;;;;;;;5068929;28;20239;-84
2021/06/28 11:18:59;;;;;;;10.53;9.53;;;;;;;;;;5065636;28;20185;-85
2021/06/28 11:21:38;;;;;;;10.67;9.60;;;;;;;;;;5074434;28;20552;-84
2021/06/28 11:24:04;;;;;;;9.60;8.70;;;;;;;;;;5074101;28;20172;-84
2021/06/28 11:26:35;;;;;;;9.77;8.90;;;;;;;;;;5074263;28;20606;-84
2021/06/28 11:29:01;;;;;;;11.47;10.37;;;;;;;;;;5074411;28;20202;-84
2021/06/28 11:31:28;;;;;;;9.30;8.60;;;;;;;;;;5066002;28;20251;-83
2021/06/28 11:33:56;;;;;;;9.87;8.97;;;;;;;;;;5071166;28;20216;-82
2021/06/28 11:36:28;;;;;;;9.50;8.60;;;;;;;;;;5074859;28;20270;-82
2021/06/28 11:38:55;;;;;;;10.20;9.30;;;;;;;;;;5074834;28;20189;-82
2021/06/28 11:41:23;;;;;;;9.83;8.97;;;;;;;;;;5072448;28;20176;-86
2021/06/28 11:43:51;;;;;;;10.00;9.20;;;;;;;;;;5079380;28;20310;-85
2021/06/28 11:46:46;;;;;;;9.40;8.57;;;;;;;;;;5082940;28;20176;-85
2021/06/28 11:49:21;;;;;;;10.70;9.60;;;;;;;;;;5086362;28;20198;-86
2021/06/28 11:51:48;;;;;;;10.80;9.73;;;;;;;;;;5084888;28;20203;-87
2021/06/28 11:54:15;;;;;;;10.33;9.47;;;;;;;;;;5083997;28;20184;-86
2021/06/28 11:56:52;;;;;;;10.10;9.20;;;;;;;;;;5084340;28;20285;-86
2021/06/28 11:59:19;;;;;;;9.50;8.63;;;;;;;;;;5072610;28;20177;-85
2021/06/28 12:01:47;;;;;;;10.73;9.80;;;;;;;;;;5082169;28;20196;-86
2021/06/28 12:04:33;;;;;;;9.30;8.40;;;;;;;;;;5065371;28;20178;-87
2021/06/28 12:07:00;;;;;;;9.40;8.50;;;;;;;;;;5065424;28;20188;-86
2021/06/28 12:09:27;;;;;;;9.80;8.87;;;;;;;;;;5074842;28;20202;-90
2021/06/28 12:11:54;;;;;;;11.53;9.30;;;;;;;;;;5075744;28;20177;-89
2021/06/28 12:14:31;;;;;;;10.13;9.13;;;;;;;;;;5076182;28;20185;-89
2021/06/28 12:16:57;;;;;;;10.00;9.10;;;;;;;;;;5074993;28;20232;-90
2021/06/28 12:19:24;;;;;;;10.60;9.80;;;;;;;;;;5069959;28;20235;-90
2021/06/28 12:21:50;;;;;;;10.73;9.83;;;;;;;;;;5075287;28;20182;-93
2021/06/28 12:24:18;;;;;;;11.43;10.27;;;;;;;;;;5075741;28;20250;-89
2021/06/28 12:27:02;;;;;;;11.07;10.20;;;;;;;;;;5073796;28;20188;-91
2021/06/28 12:32:59;;;;;;;10.13;9.23;;;;;;;;;;5055463;28;20200;-88
2021/06/28 12:35:40;;;;;;;9.70;8.70;;;;;;;;;;5072871;28;20286;-91
2021/06/28 12:38:06;;;;;;;9.60;8.70;;;;;;;;;;5073974;28;20654;-87
2021/06/28 12:40:38;;;;;;;9.37;8.57;;;;;;;;;;5072673;28;20676;-88
2021/06/28 12:43:06;;;;;;;8.27;7.67;;;;;;;;;;5072279;28;20192;-89
2021/06/28 12:45:34;;;;;;;8.37;7.53;;;;;;;;;;5071758;28;20187;-92
2021/06/28 12:48:02;;;;;;;8.10;7.30;;;;;;;;;;5072377;28;20272;-89
2021/06/28 12:50:30;;;;;;;7.23;6.73;;;;;;;;;;5071032;28;20174;-91
2021/06/28 12:52:56;;;;;;;7.03;6.53;;;;;;;;;;5054596;28;20176;-88
2021/06/28 12:55:29;;;;;;;8.53;7.00;;;;;;;;;;5071464;28;20213;-89
2021/06/28 12:58:06;;;;;;;7.67;6.97;;;;;;;;;;5072149;28;20201;-89
2021/06/28 13:00:34;;;;;;;7.07;6.57;;;;;;;;;;5071030;28;20194;-89
2021/06/28 13:03:03;;;;;;;7.47;6.87;;;;;;;;;;5059793;28;20512;-89
2021/06/28 13:05:31;;;;;;;7.30;6.70;;;;;;;;;;5074651;28;20200;-87
2021/06/28 13:08:14;;;;;;;7.60;7.00;;;;;;;;;;5069217;28;20306;-87
2021/06/28 13:10:59;;;;;;;6.90;6.40;;;;;;;;;;5072005;28;20196;-88
2021/06/28 13:13:26;;;;;;;7.17;6.60;;;;;;;;;;5052640;28;20240;-88
2021/06/28 13:16:16;;;;;;;7.03;6.43;;;;;;;;;;5061235;28;20454;-89
2021/06/28 13:18:51;;;;;;;6.73;6.23;;;;;;;;;;5061716;28;20171;-90
2021/06/28 13:21:17;;;;;;;6.63;6.03;;;;;;;;;;5072254;28;20167;-88
2021/06/28 13:23:48;;;;;;;6.10;5.60;;;;;;;;;;5072558;28;20240;-89
2021/06/28 13:26:14;;;;;;;6.60;5.77;;;;;;;;;;5073296;28;20185;-84
2021/06/28 13:28:49;;;;;;;6.90;6.30;;;;;;;;;;5072202;28;20276;-89
2021/06/28 13:31:15;;;;;;;6.63;5.73;;;;;;;;;;5068283;28;20286;-91
2021/06/28 13:34:00;;;;;;;6.30;5.80;;;;;;;;;;5070932;28;20262;-88
2021/06/28 13:36:26;;;;;;;6.07;5.53;;;;;;;;;;5078290;28;20221;-89
2021/06/28 13:38:52;;;;;;;5.70;5.10;;;;;;;;;;5068438;28;20193;-89
2021/06/28 13:41:18;;;;;;;5.60;5.10;;;;;;;;;;5067249;28;20189;-90
2021/06/28 13:43:44;;;;;;;4.80;4.47;;;;;;;;;;5069267;28;20193;-89
2021/06/28 13:46:25;;;;;;;5.23;4.73;;;;;;;;;;5062727;28;20209;-90
2021/06/28 13:48:51;;;;;;;5.37;4.97;;;;;;;;;;5061761;28;20200;-90
2021/06/28 13:51:17;;;;;;;6.00;4.67;;;;;;;;;;5070363;28;20571;-88
2021/06/28 13:53:43;;;;;;;5.40;5.00;;;;;;;;;;5069456;28;20255;-83
2021/06/28 13:56:09;;;;;;;5.27;4.80;;;;;;;;;;5059179;28;20662;-84
2021/06/28 13:58:36;;;;;;;4.90;4.50;;;;;;;;;;5051595;28;20182;-88
2021/06/28 14:01:03;;;;;;;6.40;5.90;;;;;;;;;;5062714;28;20192;-89
2021/06/28 14:03:29;;;;;;;7.30;5.23;;;;;;;;;;5070057;28;20672;-89
2021/06/28 14:05:55;;;;;;;6.40;5.80;;;;;;;;;;5064152;28;20179;-88
2021/06/28 14:08:22;;;;;;;7.40;6.17;;;;;;;;;;5073637;28;20261;-87
2021/06/28 14:10:49;;;;;;;5.17;4.77;;;;;;;;;;5062816;28;20175;-81
2021/06/28 14:13:18;;;;;;;5.60;5.20;;;;;;;;;;5062719;28;20189;-90
2021/06/28 14:15:44;;;;;;;7.40;6.03;;;;;;;;;;5071138;28;20221;-91
2021/06/28 14:18:10;;;;;;;5.70;5.30;;;;;;;;;;5069904;28;20202;-90
2021/06/28 14:20:37;;;;;;;5.77;5.33;;;;;;;;;;5070661;28;20197;-87
2021/06/28 14:23:03;;;;;;;5.67;5.17;;;;;;;;;;5072871;28;20201;-88
2021/06/28 14:25:29;;;;;;;5.60;5.10;;;;;;;;;;5071277;28;20205;-87
2021/06/28 14:27:55;;;;;;;8.47;5.40;;;;;;;;;;5071179;28;20272;-88
2021/06/28 14:30:22;;;;;;;6.00;5.50;;;;;;;;;;5071235;28;20184;-91
2021/06/28 14:32:49;;;;;;;6.60;5.30;;;;;;;;;;5070866;28;20200;-91
2021/06/28 14:35:16;;;;;;;5.47;4.97;;;;;;;;;;5069434;28;20675;-91
2021/06/28 14:37:42;;;;;;;6.53;5.30;;;;;;;;;;5071180;28;20172;-88
2021/06/28 14:40:09;;;;;;;5.77;5.27;;;;;;;;;;5069561;28;20174;-90
2021/06/28 14:42:35;;;;;;;5.40;4.90;;;;;;;;;;5073350;28;20189;-89
2021/06/28 14:45:01;;;;;;;5.20;4.70;;;;;;;;;;5069487;28;20529;-89